Time;durP1;ratioP1;P1;durP2;ratioP2;P2;SDS_P1;SDS_P2;PMS_P1;PMS_P2;Temp;Humidity;BMP_temperature;BMP_pressure;BME280_temperature;BME280_humidity;BME280_pressure;Samples;Min_cycle;Max_cycle;Signal;HPM_P1;HPM_P2
2023/09/30 00:02:07;;;;;;;3.88;1.42;;;12.10;99.90;;;;;;5056766;28;20118;-62
2023/09/30 00:04:33;;;;;;;3.67;1.42;;;12.10;99.90;;;;;;5056826;28;20029;-62
2023/09/30 00:06:59;;;;;;;2.40;1.13;;;12.10;99.90;;;;;;5038738;28;20495;-63
2023/09/30 00:09:25;;;;;;;2.10;1.20;;;12.10;99.90;;;;;;5056797;28;20041;-62
2023/09/30 00:11:50;;;;;;;2.97;1.85;;;12.10;99.90;;;;;;5056760;28;20532;-62
2023/09/30 00:14:17;;;;;;;1.92;1.20;;;12.10;99.90;;;;;;5038850;28;20049;-62
2023/09/30 00:16:43;;;;;;;2.88;1.50;;;12.80;99.90;;;;;;5056420;28;20049;-62
2023/09/30 00:19:09;;;;;;;3.25;1.80;;;12.10;99.90;;;;;;5056299;28;20048;-62
2023/09/30 00:21:35;;;;;;;2.75;1.30;;;12.10;99.90;;;;;;5056519;28;20071;-62
2023/09/30 00:24:00;;;;;;;2.03;1.45;;;12.10;99.90;;;;;;5038366;28;20045;-62
2023/09/30 00:26:26;;;;;;;2.35;1.23;;;12.10;99.90;;;;;;5056471;28;20476;-62
2023/09/30 00:28:52;;;;;;;2.30;1.30;;;12.10;99.90;;;;;;5056391;28;20029;-62
2023/09/30 00:31:17;;;;;;;2.25;1.20;;;12.10;99.90;;;;;;5056054;28;20443;-62
2023/09/30 00:33:43;;;;;;;4.13;1.50;;;12.10;99.90;;;;;;5038437;28;20060;-63
2023/09/30 00:36:10;;;;;;;2.10;1.58;;;12.10;99.90;;;;;;5056309;28;20084;-62
2023/09/30 00:38:36;;;;;;;2.33;1.27;;;12.10;99.90;;;;;;5038157;28;20055;-62
2023/09/30 00:41:02;;;;;;;2.35;1.45;;;12.10;99.90;;;;;;5056056;28;20055;-62
2023/09/30 00:43:28;;;;;;;2.25;1.73;;;12.30;99.90;;;;;;5056117;28;20493;-62
2023/09/30 00:46:28;;;;;;;2.47;1.20;;;12.10;99.90;;;;;;5056118;28;20550;-62
2023/09/30 00:48:56;;;;;;;2.05;1.30;;;12.10;99.90;;;;;;5041297;28;20079;-64
2023/09/30 00:51:23;;;;;;;2.88;1.63;;;12.10;99.90;;;;;;5055955;28;20044;-64
2023/09/30 00:53:50;;;;;;;1.60;1.42;;;12.10;99.90;;;;;;5037817;28;20049;-64
2023/09/30 00:56:18;;;;;;;2.28;1.25;;;12.10;99.90;;;;;;5055905;28;20424;-64
2023/09/30 00:58:48;;;;;;;1.95;1.10;;;12.10;99.90;;;;;;5055911;28;20041;-64
2023/09/30 01:01:15;;;;;;;3.42;1.80;;;12.10;99.90;;;;;;5021332;28;20128;-64
2023/09/30 01:03:41;;;;;;;2.95;1.40;;;12.00;99.90;;;;;;5055742;28;20037;-64
2023/09/30 01:06:07;;;;;;;1.80;1.20;;;12.00;99.90;;;;;;5037630;28;20040;-64
2023/09/30 01:08:34;;;;;;;1.85;1.15;;;12.10;99.90;;;;;;5037722;28;20041;-64
2023/09/30 01:11:00;;;;;;;1.77;1.30;;;12.00;99.90;;;;;;5055559;28;20129;-64
2023/09/30 01:13:34;;;;;;;2.65;1.63;;;12.00;99.90;;;;;;5055288;28;20084;-64
2023/09/30 01:16:04;;;;;;;2.45;1.45;;;12.10;99.90;;;;;;5055207;28;20048;-64
2023/09/30 01:18:29;;;;;;;1.88;1.02;;;12.10;99.90;;;;;;5055167;28;20063;-64
2023/09/30 01:20:56;;;;;;;2.45;1.60;;;12.10;99.90;;;;;;5055389;28;20037;-64
2023/09/30 01:23:21;;;;;;;2.00;1.25;;;12.10;99.90;;;;;;5055070;28;20076;-64
2023/09/30 01:25:47;;;;;;;2.20;1.48;;;12.00;99.90;;;;;;5037214;28;20470;-64
2023/09/30 01:28:14;;;;;;;3.22;2.05;;;12.00;99.90;;;;;;5037096;28;20041;-64
2023/09/30 01:30:41;;;;;;;3.75;1.30;;;12.00;99.90;;;;;;5055274;28;20041;-64
2023/09/30 01:33:07;;;;;;;2.28;1.40;;;12.00;99.90;;;;;;5055006;28;20424;-64
2023/09/30 01:35:33;;;;;;;1.95;1.13;;;12.10;99.90;;;;;;5055108;28;20048;-64
2023/09/30 01:37:59;;;;;;;2.05;1.50;;;12.10;99.90;;;;;;5037003;28;20080;-64
2023/09/30 01:40:24;;;;;;;2.13;1.38;;;12.10;99.90;;;;;;5054809;28;20037;-64
2023/09/30 01:42:50;;;;;;;2.42;1.45;;;12.00;99.90;;;;;;5020423;28;20145;-64
2023/09/30 01:45:15;;;;;;;1.65;1.33;;;12.00;99.90;;;;;;5054965;28;20029;-64
2023/09/30 01:47:41;;;;;;;2.40;1.67;;;12.00;99.90;;;;;;5054900;28;20389;-64
2023/09/30 01:50:07;;;;;;;1.98;1.45;;;12.00;99.90;;;;;;5054945;28;20473;-64
2023/09/30 01:52:33;;;;;;;3.30;1.48;;;12.10;99.90;;;;;;5054794;28;20043;-64
2023/09/30 01:54:58;;;;;;;2.67;1.77;;;12.00;99.90;;;;;;5036739;28;20123;-64
2023/09/30 01:57:24;;;;;;;1.77;1.38;;;12.00;99.90;;;;;;5054838;28;20124;-62
2023/09/30 01:59:49;;;;;;;1.70;1.17;;;12.00;99.90;;;;;;5054766;28;20037;-64
2023/09/30 02:02:15;;;;;;;3.35;1.58;;;11.90;99.90;;;;;;5054604;28;20048;-62
2023/09/30 02:04:41;;;;;;;2.15;1.38;;;11.90;99.90;;;;;;5054648;28;20037;-62
2023/09/30 02:07:06;;;;;;;1.60;1.13;;;11.90;99.90;;;;;;5054663;28;20033;-63
2023/09/30 02:09:32;;;;;;;2.45;1.50;;;11.90;99.90;;;;;;5054528;28;20051;-64
2023/09/30 02:11:58;;;;;;;2.00;1.42;;;11.90;99.90;;;;;;5054515;28;20036;-64
2023/09/30 02:14:24;;;;;;;3.33;1.67;;;12.50;99.90;;;;;;5036258;28;20041;-64
2023/09/30 02:16:50;;;;;;;2.92;1.33;;;11.90;99.90;;;;;;5054107;28;20045;-64
2023/09/30 02:19:16;;;;;;;2.33;1.13;;;11.90;99.90;;;;;;5054096;28;20048;-64
2023/09/30 02:21:42;;;;;;;2.38;1.42;;;11.90;99.90;;;;;;5054249;28;20033;-64
2023/09/30 02:24:07;;;;;;;1.70;1.38;;;11.90;99.90;;;;;;5035983;28;20033;-64
2023/09/30 02:26:33;;;;;;;2.40;1.35;;;11.90;99.90;;;;;;5054119;28;20484;-64
2023/09/30 02:28:59;;;;;;;2.58;1.80;;;11.90;99.90;;;;;;5054131;28;20536;-64
2023/09/30 02:31:25;;;;;;;2.55;1.33;;;11.90;99.90;;;;;;5053778;28;20177;-64
2023/09/30 02:33:50;;;;;;;2.20;1.40;;;11.90;99.90;;;;;;5053632;28;20135;-64
2023/09/30 02:36:16;;;;;;;2.33;1.25;;;11.90;99.90;;;;;;5035837;28;20433;-64
2023/09/30 02:38:43;;;;;;;2.05;1.48;;;11.90;99.90;;;;;;5053902;28;20496;-64
2023/09/30 02:41:09;;;;;;;3.53;2.03;;;11.90;99.90;;;;;;5019144;28;20132;-64
2023/09/30 02:43:34;;;;;;;1.88;1.05;;;11.90;99.90;;;;;;5053828;28;20443;-65
2023/09/30 02:46:00;;;;;;;2.78;1.35;;;12.00;99.90;;;;;;5035678;28;20047;-64
2023/09/30 02:48:25;;;;;;;2.63;1.30;;;12.00;99.90;;;;;;5035617;28;20041;-64
2023/09/30 02:50:51;;;;;;;3.05;1.55;;;12.00;99.90;;;;;;5053739;28;20044;-64
2023/09/30 02:53:16;;;;;;;1.67;1.40;;;12.00;99.90;;;;;;5053655;28;20086;-64
2023/09/30 02:55:42;;;;;;;1.42;1.33;;;12.00;99.90;;;;;;5053568;28;20072;-64
2023/09/30 02:58:08;;;;;;;2.38;1.83;;;12.00;99.90;;;;;;5053560;28;20033;-64
2023/09/30 03:00:37;;;;;;;1.42;1.23;;;12.10;99.90;;;;;;5053506;28;20485;-64
2023/09/30 03:03:04;;;;;;;2.40;1.48;;;12.10;99.90;;;;;;5053411;28;20044;-64
2023/09/30 03:05:33;;;;;;;3.78;1.75;;;12.10;99.90;;;;;;5053450;28;20037;-64
2023/09/30 03:07:59;;;;;;;2.05;1.50;;;12.10;99.90;;;;;;5053230;28;20049;-63
2023/09/30 03:10:26;;;;;;;2.33;1.40;;;12.20;99.90;;;;;;5053328;28;20033;-62
2023/09/30 03:13:03;;;;;;;3.25;1.40;;;12.70;99.90;;;;;;5053324;28;20416;-62
2023/09/30 03:15:32;;;;;;;3.25;1.67;;;12.20;99.90;;;;;;5053318;28;20401;-62
2023/09/30 03:17:59;;;;;;;2.97;1.60;;;12.30;99.90;;;;;;5035301;28;20044;-63
2023/09/30 03:20:25;;;;;;;1.58;1.42;;;12.30;99.90;;;;;;5053281;28;20067;-64
2023/09/30 03:22:51;;;;;;;2.70;1.48;;;12.30;99.90;;;;;;5052833;28;20500;-64
2023/09/30 03:25:18;;;;;;;2.13;1.42;;;12.30;99.90;;;;;;5053161;28;20159;-64
2023/09/30 03:27:46;;;;;;;2.17;1.75;;;12.30;99.90;;;;;;5035339;28;20473;-67
2023/09/30 03:30:12;;;;;;;2.83;1.63;;;12.20;99.90;;;;;;5034951;28;20468;-64
2023/09/30 03:32:39;;;;;;;1.88;1.30;;;12.20;99.90;;;;;;5053081;28;20037;-64
2023/09/30 03:35:17;;;;;;;1.83;1.30;;;12.20;99.90;;;;;;5051763;28;20057;-65
2023/09/30 03:37:46;;;;;;;1.52;1.30;;;12.10;99.90;;;;;;5053027;28;20049;-65
2023/09/30 03:40:19;;;;;;;3.05;1.80;;;12.10;99.90;;;;;;5052930;28;20382;-64
2023/09/30 03:42:49;;;;;;;2.80;1.38;;;12.10;99.90;;;;;;5052936;28;20052;-64
2023/09/30 03:45:14;;;;;;;2.33;1.50;;;12.10;99.90;;;;;;5052974;28;20116;-64
2023/09/30 03:47:41;;;;;;;3.83;1.70;;;12.10;99.90;;;;;;5052948;28;20045;-64
2023/09/30 03:50:14;;;;;;;2.20;1.65;;;12.50;99.90;;;;;;5034930;28;20048;-62
2023/09/30 03:52:40;;;;;;;1.95;1.48;;;12.10;99.90;;;;;;5052940;28;20094;-62
2023/09/30 03:55:06;;;;;;;2.65;1.73;;;12.20;99.90;;;;;;5018269;28;20053;-63
2023/09/30 03:57:33;;;;;;;2.60;1.65;;;12.20;99.90;;;;;;5018634;28;20131;-63
2023/09/30 04:00:00;;;;;;;2.63;1.42;;;12.20;99.90;;;;;;5053053;28;20049;-63
2023/09/30 04:02:25;;;;;;;2.20;1.58;;;12.20;99.90;;;;;;5052734;28;20041;-63
2023/09/30 04:04:53;;;;;;;2.25;1.40;;;12.20;99.90;;;;;;5052840;28;20044;-63
2023/09/30 04:07:19;;;;;;;2.25;1.70;;;12.20;99.90;;;;;;5034702;28;20048;-63
2023/09/30 04:09:44;;;;;;;4.18;1.90;;;12.10;99.90;;;;;;5034897;28;20044;-64
2023/09/30 04:12:11;;;;;;;3.05;1.90;;;12.10;99.90;;;;;;5052694;28;20037;-64
2023/09/30 04:14:36;;;;;;;2.20;1.60;;;12.00;99.90;;;;;;5052711;28;20045;-64
2023/09/30 04:17:02;;;;;;;3.10;1.65;;;12.00;99.90;;;;;;5052328;28;20048;-64
2023/09/30 04:19:30;;;;;;;2.05;1.40;;;12.00;99.90;;;;;;5052818;28;20041;-64
2023/09/30 04:21:56;;;;;;;2.40;1.98;;;12.00;99.90;;;;;;5052524;28;20087;-65
2023/09/30 04:24:22;;;;;;;2.55;1.50;;;12.00;99.90;;;;;;5052619;28;20135;-64
2023/09/30 04:26:50;;;;;;;2.10;1.60;;;12.00;99.90;;;;;;5052310;28;20488;-64
2023/09/30 04:29:16;;;;;;;2.00;1.42;;;12.00;99.90;;;;;;5052214;28;20091;-64
2023/09/30 04:31:41;;;;;;;1.48;1.30;;;12.30;99.90;;;;;;5052245;28;20072;-64
2023/09/30 04:34:07;;;;;;;1.38;1.20;;;12.00;99.90;;;;;;5052134;28;20060;-65
2023/09/30 04:36:35;;;;;;;1.70;1.40;;;11.90;99.90;;;;;;5052188;28;20048;-64
2023/09/30 04:39:02;;;;;;;2.17;1.42;;;12.10;99.90;;;;;;5034428;28;20451;-64
2023/09/30 04:41:28;;;;;;;3.53;1.50;;;11.90;99.90;;;;;;5052374;28;20450;-64
2023/09/30 04:43:54;;;;;;;3.10;1.80;;;11.90;99.90;;;;;;5034393;28;20114;-65
2023/09/30 04:46:23;;;;;;;1.90;1.50;;;11.90;99.90;;;;;;5053771;28;20128;-64
2023/09/30 04:48:51;;;;;;;2.28;1.50;;;11.90;99.90;;;;;;5038187;28;20120;-64
2023/09/30 04:51:18;;;;;;;3.47;1.67;;;11.90;99.90;;;;;;5055985;28;20041;-65
2023/09/30 04:53:46;;;;;;;2.28;1.45;;;11.90;99.90;;;;;;5055670;28;20033;-64
2023/09/30 04:56:12;;;;;;;1.33;1.23;;;12.00;99.90;;;;;;5037744;28;20472;-64
2023/09/30 04:58:38;;;;;;;2.58;1.70;;;11.90;99.90;;;;;;5055626;28;20382;-64
2023/09/30 05:01:03;;;;;;;2.42;1.75;;;11.90;99.90;;;;;;5055777;28;20044;-64
2023/09/30 05:03:29;;;;;;;1.85;1.35;;;11.90;99.90;;;;;;5055755;28;20465;-64
2023/09/30 05:05:55;;;;;;;2.38;1.60;;;11.90;99.90;;;;;;5055777;28;20033;-64
2023/09/30 05:08:22;;;;;;;3.25;2.05;;;11.80;99.90;;;;;;5055418;28;20036;-64
2023/09/30 05:10:48;;;;;;;3.97;1.70;;;11.80;99.90;;;;;;5055751;28;20049;-63
2023/09/30 05:13:13;;;;;;;1.83;1.40;;;11.80;99.90;;;;;;5020921;28;20507;-63
2023/09/30 05:15:41;;;;;;;2.15;1.50;;;11.70;99.90;;;;;;5055613;28;20047;-63
2023/09/30 05:18:08;;;;;;;1.55;1.30;;;11.70;99.90;;;;;;5055445;28;20041;-63
2023/09/30 05:20:36;;;;;;;1.85;1.50;;;11.70;99.90;;;;;;5055274;28;20044;-63
2023/09/30 05:23:02;;;;;;;1.67;1.40;;;11.70;99.90;;;;;;5055344;28;20048;-63
2023/09/30 05:25:28;;;;;;;1.90;1.60;;;11.70;99.90;;;;;;5055432;28;20037;-63
2023/09/30 05:27:54;;;;;;;2.28;1.27;;;11.90;99.90;;;;;;5037500;28;20037;-63
2023/09/30 05:30:20;;;;;;;2.78;1.60;;;11.70;99.90;;;;;;5037240;28;20044;-63
2023/09/30 05:32:46;;;;;;;2.63;2.03;;;11.70;99.90;;;;;;5055014;28;20112;-63
2023/09/30 05:35:12;;;;;;;2.67;1.55;;;11.70;99.90;;;;;;5055142;28;20103;-63
2023/09/30 05:37:43;;;;;;;1.60;1.35;;;11.70;99.90;;;;;;5055133;28;20041;-63
2023/09/30 05:40:20;;;;;;;1.50;1.35;;;11.70;99.90;;;;;;5055174;28;20136;-63
2023/09/30 05:42:45;;;;;;;2.58;1.73;;;11.70;99.90;;;;;;5055004;28;20055;-63
2023/09/30 05:45:15;;;;;;;2.83;1.40;;;11.70;99.90;;;;;;5055004;28;20032;-63
2023/09/30 05:47:41;;;;;;;2.95;1.88;;;11.70;99.90;;;;;;5055045;28;20407;-63
2023/09/30 05:50:08;;;;;;;2.53;1.80;;;11.70;99.90;;;;;;5054729;28;20124;-63
2023/09/30 05:52:34;;;;;;;1.60;1.50;;;11.70;99.90;;;;;;5036999;28;20392;-63
2023/09/30 05:55:00;;;;;;;2.05;1.58;;;11.50;99.90;;;;;;5054847;28;20120;-63
2023/09/30 05:57:27;;;;;;;1.85;1.38;;;11.60;99.90;;;;;;5053929;28;20084;-63
2023/09/30 05:59:52;;;;;;;2.10;1.48;;;11.60;99.90;;;;;;5054754;28;20044;-63
2023/09/30 06:02:18;;;;;;;2.40;1.50;;;11.60;99.90;;;;;;5054384;28;20488;-63
2023/09/30 06:04:46;;;;;;;1.92;1.17;;;11.60;99.90;;;;;;5036853;28;20115;-63
2023/09/30 06:07:12;;;;;;;1.42;1.30;;;11.60;99.90;;;;;;5054256;28;20040;-63
2023/09/30 06:09:37;;;;;;;2.08;1.60;;;11.60;99.90;;;;;;5036438;28;20170;-63
2023/09/30 06:12:06;;;;;;;2.53;1.75;;;11.60;99.90;;;;;;5036531;28;20487;-63
2023/09/30 06:14:32;;;;;;;3.17;1.73;;;11.60;99.90;;;;;;5054458;28;20045;-63
2023/09/30 06:16:58;;;;;;;2.92;1.77;;;11.60;99.90;;;;;;5054430;28;20045;-63
2023/09/30 06:19:25;;;;;;;3.25;1.80;;;11.70;99.90;;;;;;5054137;28;20561;-63
2023/09/30 06:21:51;;;;;;;2.20;1.70;;;11.60;99.90;;;;;;5054238;28;20052;-63
2023/09/30 06:24:19;;;;;;;2.28;1.70;;;11.70;99.90;;;;;;5054195;28;20108;-63
2023/09/30 06:26:45;;;;;;;3.45;2.05;;;11.70;99.90;;;;;;5054264;28;20353;-63
2023/09/30 06:29:11;;;;;;;4.57;1.83;;;11.70;99.90;;;;;;5053974;28;20044;-63
2023/09/30 06:31:37;;;;;;;1.90;1.42;;;11.70;99.90;;;;;;5035963;28;20192;-63
2023/09/30 06:34:04;;;;;;;1.63;1.25;;;11.70;99.90;;;;;;5032659;28;20128;-62
2023/09/30 06:36:29;;;;;;;2.33;1.63;;;11.70;99.90;;;;;;5034198;28;20512;-63
2023/09/30 06:38:58;;;;;;;2.92;2.05;;;11.80;99.90;;;;;;5032701;28;20112;-65
2023/09/30 06:41:25;;;;;;;1.65;1.55;;;11.80;99.90;;;;;;5034032;28;20046;-68
2023/09/30 06:43:51;;;;;;;2.25;1.80;;;11.90;99.90;;;;;;5032416;28;20045;-70
2023/09/30 06:46:17;;;;;;;2.40;2.00;;;11.90;99.90;;;;;;5032384;28;20045;-64
2023/09/30 06:48:43;;;;;;;3.05;1.67;;;12.00;99.90;;;;;;5033818;28;20125;-66
2023/09/30 06:51:15;;;;;;;3.13;1.60;;;12.00;99.90;;;;;;5033828;28;20441;-69
2023/09/30 06:53:40;;;;;;;1.23;1.08;;;12.10;99.90;;;;;;5033462;28;20045;-66
2023/09/30 06:56:06;;;;;;;2.35;1.50;;;12.20;99.90;;;;;;5033683;28;20044;-67
2023/09/30 06:58:32;;;;;;;3.05;2.03;;;12.30;99.90;;;;;;5033677;28;20041;-66
2023/09/30 07:00:58;;;;;;;1.70;1.58;;;12.30;99.90;;;;;;5032057;28;20057;-69
2023/09/30 07:03:24;;;;;;;1.65;1.45;;;12.40;99.90;;;;;;5033567;28;20037;-69
2023/09/30 07:05:50;;;;;;;2.42;1.58;;;12.50;99.90;;;;;;5033481;28;20052;-68
2023/09/30 07:08:21;;;;;;;2.38;1.55;;;12.60;99.90;;;;;;5032278;28;20033;-65
2023/09/30 07:10:48;;;;;;;2.80;2.00;;;12.70;99.90;;;;;;5032271;28;20077;-65
2023/09/30 07:13:18;;;;;;;2.97;2.00;;;12.80;99.90;;;;;;5033059;28;20052;-64
2023/09/30 07:15:43;;;;;;;3.60;1.35;;;12.90;99.90;;;;;;5033164;28;20049;-65
2023/09/30 07:18:09;;;;;;;2.08;1.60;;;13.00;99.90;;;;;;5015428;28;20037;-64
2023/09/30 07:20:35;;;;;;;3.15;1.90;;;13.00;99.90;;;;;;5033139;28;20041;-65
2023/09/30 07:23:01;;;;;;;2.38;2.00;;;13.20;99.90;;;;;;5031928;28;20046;-67
2023/09/30 07:25:27;;;;;;;1.98;1.55;;;13.20;99.90;;;;;;5033235;28;20037;-65
2023/09/30 07:27:53;;;;;;;1.50;1.40;;;13.40;99.90;;;;;;5032916;28;20029;-67
2023/09/30 07:30:19;;;;;;;2.95;1.67;;;13.50;99.90;;;;;;5031602;28;20067;-69
2023/09/30 07:32:46;;;;;;;1.58;1.33;;;13.50;99.90;;;;;;5033839;28;20128;-65
2023/09/30 07:35:15;;;;;;;1.42;1.33;;;13.60;99.90;;;;;;5052990;28;20059;-68
2023/09/30 07:37:41;;;;;;;1.60;1.25;;;13.80;99.90;;;;;;5052774;28;20041;-70
2023/09/30 07:40:07;;;;;;;1.85;1.67;;;13.80;99.90;;;;;;5034884;28;20091;-65
2023/09/30 07:42:33;;;;;;;1.70;1.60;;;13.80;99.90;;;;;;5034712;28;20135;-66
2023/09/30 07:44:59;;;;;;;1.67;1.30;;;13.90;99.90;;;;;;5052578;28;20099;-65
2023/09/30 07:47:24;;;;;;;1.65;1.50;;;14.40;99.90;;;;;;5052955;28;20033;-65
2023/09/30 07:49:50;;;;;;;3.67;2.00;;;14.40;99.90;;;;;;5053073;28;20116;-65
2023/09/30 07:52:15;;;;;;;2.55;1.92;;;14.10;99.90;;;;;;5052863;28;20114;-65
2023/09/30 07:54:41;;;;;;;1.63;1.20;;;14.20;99.90;;;;;;5052876;28;20047;-65
2023/09/30 07:57:07;;;;;;;2.08;1.30;;;14.70;99.90;;;;;;5034612;28;20159;-69
2023/09/30 07:59:33;;;;;;;2.22;1.65;;;14.30;99.90;;;;;;5018224;28;20037;-65
2023/09/30 08:01:59;;;;;;;2.05;1.38;;;14.40;99.90;;;;;;5052527;28;20037;-65
2023/09/30 08:04:24;;;;;;;6.07;1.48;;;14.40;99.90;;;;;;5035055;28;20076;-65
2023/09/30 08:06:53;;;;;;;1.30;1.20;;;14.40;99.90;;;;;;5052279;28;20126;-66
2023/09/30 08:09:19;;;;;;;1.88;1.20;;;14.50;99.90;;;;;;5052231;28;20083;-65
2023/09/30 08:11:44;;;;;;;1.98;1.48;;;14.60;99.90;;;;;;5052464;28;20130;-65
2023/09/30 08:14:10;;;;;;;3.25;1.88;;;14.60;99.90;;;;;;5034354;28;20041;-65
2023/09/30 08:16:37;;;;;;;1.38;1.20;;;14.70;99.90;;;;;;5052601;28;20477;-66
2023/09/30 08:19:03;;;;;;;2.28;1.77;;;14.70;99.90;;;;;;5052532;28;20128;-65
2023/09/30 08:21:30;;;;;;;2.15;1.35;;;14.80;99.90;;;;;;5054220;28;20120;-65
2023/09/30 08:23:55;;;;;;;2.92;1.70;;;15.00;99.90;;;;;;5056436;28;20047;-65
2023/09/30 08:26:22;;;;;;;2.10;1.60;;;15.00;99.90;;;;;;5056308;28;20529;-65
2023/09/30 08:28:47;;;;;;;1.52;1.30;;;15.00;99.90;;;;;;5056436;28;20091;-65
2023/09/30 08:31:14;;;;;;;2.03;1.45;;;15.10;99.90;;;;;;5056274;28;20041;-65
2023/09/30 08:33:45;;;;;;;1.95;1.40;;;15.10;99.90;;;;;;5037941;28;20052;-65
2023/09/30 08:36:11;;;;;;;2.65;1.50;;;15.20;99.90;;;;;;5056171;28;20455;-65
2023/09/30 08:38:39;;;;;;;1.55;0.93;;;15.30;99.90;;;;;;5056283;28;20404;-65
2023/09/30 08:41:05;;;;;;;1.58;1.30;;;15.30;99.90;;;;;;5055760;28;20037;-68
2023/09/30 08:43:33;;;;;;;3.08;1.67;;;15.40;99.90;;;;;;5038038;28;20090;-72
2023/09/30 08:46:00;;;;;;;2.35;1.60;;;15.50;99.90;;;;;;5056147;28;20044;-68
2023/09/30 08:48:29;;;;;;;2.28;1.70;;;15.50;99.90;;;;;;5055928;28;20077;-70
2023/09/30 08:50:56;;;;;;;2.50;1.52;;;15.60;99.90;;;;;;5037728;28;20037;-70
2023/09/30 08:53:23;;;;;;;2.22;1.40;;;15.60;99.90;;;;;;5055513;28;20167;-65
2023/09/30 08:55:56;;;;;;;1.90;1.45;;;15.60;99.90;;;;;;5055853;28;20048;-65
2023/09/30 08:58:26;;;;;;;1.40;1.13;;;15.70;99.90;;;;;;5037693;28;20041;-65
2023/09/30 09:00:51;;;;;;;2.03;1.42;;;15.70;99.90;;;;;;5055969;28;20417;-65
2023/09/30 09:03:19;;;;;;;1.52;1.27;;;15.70;99.90;;;;;;5055600;28;20138;-65
2023/09/30 09:05:45;;;;;;;1.30;1.15;;;15.80;99.90;;;;;;5055802;28;20045;-65
2023/09/30 09:08:11;;;;;;;1.58;1.23;;;15.80;99.90;;;;;;5021226;28;20515;-65
2023/09/30 09:10:57;;;;;;;1.67;1.15;;;15.80;99.90;;;;;;5055807;28;20048;-65
2023/09/30 09:13:23;;;;;;;1.30;1.05;;;15.80;99.90;;;;;;5037458;28;20095;-65
2023/09/30 09:15:49;;;;;;;1.58;1.20;;;15.90;99.90;;;;;;5055599;28;20447;-65
2023/09/30 09:18:33;;;;;;;2.30;1.30;;;15.90;99.90;;;;;;5055476;28;20037;-65
2023/09/30 09:21:20;;;;;;;1.40;1.23;;;16.00;99.90;;;;;;5055303;28;20076;-65
2023/09/30 09:23:47;;;;;;;1.65;1.30;;;16.10;99.90;;;;;;5055472;28;20452;-65
2023/09/30 09:26:27;;;;;;;1.85;1.33;;;16.10;99.90;;;;;;5037308;28;20116;-65
2023/09/30 09:29:04;;;;;;;1.60;0.80;;;16.20;99.90;;;;;;5055008;28;20037;-65
2023/09/30 09:31:34;;;;;;;2.45;1.35;;;16.30;99.90;;;;;;5055152;28;20171;-65
2023/09/30 09:34:00;;;;;;;1.90;1.10;;;16.30;99.90;;;;;;5053895;28;20056;-65
2023/09/30 09:36:43;;;;;;;2.08;1.35;;;16.30;99.90;;;;;;5055241;28;20048;-65
2023/09/30 09:39:12;;;;;;;2.17;1.02;;;16.40;99.90;;;;;;5037102;28;20053;-65
2023/09/30 09:41:52;;;;;;;3.67;1.77;;;16.40;99.90;;;;;;5036888;28;20249;-65
2023/09/30 09:44:21;;;;;;;1.40;1.10;;;16.50;99.90;;;;;;5055137;28;20044;-66
2023/09/30 09:46:50;;;;;;;1.92;1.35;;;16.50;99.90;;;;;;5037017;28;20049;-65
2023/09/30 09:49:16;;;;;;;1.80;1.10;;;16.60;99.90;;;;;;5054854;28;20438;-65
2023/09/30 09:51:45;;;;;;;1.13;1.00;;;16.70;99.90;;;;;;5054927;28;20123;-65
2023/09/30 09:54:11;;;;;;;2.33;0.80;;;17.10;99.90;;;;;;5054871;28;20055;-65
2023/09/30 09:56:38;;;;;;;2.30;0.80;;;16.80;99.90;;;;;;5054833;28;20043;-65
2023/09/30 09:59:06;;;;;;;1.85;1.10;;;16.80;99.90;;;;;;5054859;28;20041;-65
2023/09/30 10:01:34;;;;;;;2.10;0.90;;;16.60;99.90;;;;;;5036583;28;20091;-65
2023/09/30 10:04:01;;;;;;;0.77;0.65;;;17.00;99.90;;;;;;5036721;28;20552;-65
2023/09/30 10:06:27;;;;;;;1.60;0.90;;;17.10;99.90;;;;;;5054298;28;20033;-65
2023/09/30 10:08:54;;;;;;;1.48;0.93;;;17.20;99.90;;;;;;5036463;28;20449;-65
2023/09/30 10:11:20;;;;;;;1.52;1.25;;;17.20;99.90;;;;;;5054649;28;20037;-64
2023/09/30 10:14:03;;;;;;;1.00;0.75;;;17.30;99.90;;;;;;5054594;28;20047;-64
2023/09/30 10:16:35;;;;;;;0.60;0.55;;;17.30;99.90;;;;;;5054475;28;20044;-64
2023/09/30 10:19:11;;;;;;;0.65;0.65;;;17.50;99.90;;;;;;5054185;28;20381;-64
2023/09/30 10:21:37;;;;;;;1.88;1.00;;;17.50;99.90;;;;;;5019661;28;20045;-64
2023/09/30 10:24:29;;;;;;;1.27;0.88;;;17.60;99.90;;;;;;5054324;28;20080;-64
2023/09/30 10:27:31;;;;;;;2.20;1.45;;;17.70;99.90;;;;;;5036161;28;20045;-64
2023/09/30 10:30:08;;;;;;;1.38;1.10;;;17.80;99.90;;;;;;5054337;28;20467;-65
2023/09/30 10:32:56;;;;;;;1.02;0.93;;;18.00;99.90;;;;;;5053869;28;20060;-65
2023/09/30 10:35:32;;;;;;;1.08;0.80;;;;;;;;;;5054013;28;20048;-66
2023/09/30 10:38:17;;;;;;;2.38;1.30;;;;;;;;;;5054091;28;20508;-65
2023/09/30 10:40:42;;;;;;;0.98;0.70;;;18.30;99.90;;;;;;5053846;28;20074;-66
2023/09/30 10:43:30;;;;;;;1.15;1.00;;;18.30;99.90;;;;;;5053778;28;20044;-65
2023/09/30 10:45:56;;;;;;;1.77;0.95;;;18.20;96.00;;;;;;5053839;28;20080;-65
2023/09/30 10:48:25;;;;;;;1.65;1.00;;;18.20;99.90;;;;;;5035548;28;20495;-65
2023/09/30 10:50:52;;;;;;;2.58;1.73;;;18.10;99.90;;;;;;5053342;28;20041;-65
2023/09/30 10:53:18;;;;;;;2.35;1.20;;;18.10;99.90;;;;;;5053570;28;20094;-65
2023/09/30 10:55:54;;;;;;;1.17;0.80;;;18.20;99.90;;;;;;5035347;28;20049;-65
2023/09/30 10:58:20;;;;;;;1.40;0.85;;;18.30;99.50;;;;;;5053501;28;20341;-65
2023/09/30 11:00:53;;;;;;;1.67;1.23;;;18.10;99.90;;;;;;5053506;28;20037;-65
2023/09/30 11:03:22;;;;;;;2.05;0.98;;;18.00;98.90;;;;;;5053319;28;20484;-65
2023/09/30 11:05:48;;;;;;;1.42;1.08;;;17.90;97.40;;;;;;5053361;28;20041;-65
2023/09/30 11:08:17;;;;;;;1.23;1.00;;;17.70;99.90;;;;;;5053321;28;20033;-65
2023/09/30 11:10:50;;;;;;;1.05;0.80;;;17.70;99.90;;;;;;5053015;28;20123;-65
2023/09/30 11:13:16;;;;;;;1.42;1.00;;;17.70;99.90;;;;;;5035385;28;20045;-65
2023/09/30 11:15:43;;;;;;;0.82;0.80;;;17.40;99.90;;;;;;5053372;28;20404;-65
2023/09/30 11:18:16;;;;;;;1.17;0.95;;;17.40;99.90;;;;;;5053334;28;20052;-65
2023/09/30 11:20:44;;;;;;;2.50;0.90;;;17.40;99.90;;;;;;5053273;28;20041;-64
2023/09/30 11:23:14;;;;;;;0.57;0.50;;;17.40;99.90;;;;;;5053128;28;20037;-64
2023/09/30 11:25:41;;;;;;;1.88;1.23;;;17.30;99.90;;;;;;5053489;28;20102;-64
2023/09/30 11:28:17;;;;;;;1.13;0.80;;;17.30;99.90;;;;;;5053219;28;20087;-64
2023/09/30 11:31:02;;;;;;;1.05;0.70;;;17.40;99.90;;;;;;5053176;28;20041;-64
2023/09/30 11:33:28;;;;;;;1.65;0.60;;;17.50;99.90;;;;;;5052876;28;20543;-64
2023/09/30 11:36:08;;;;;;;1.17;0.80;;;17.60;99.90;;;;;;5053124;28;20447;-64
2023/09/30 11:38:34;;;;;;;2.45;1.27;;;17.60;99.90;;;;;;5052891;28;20047;-64
2023/09/30 11:41:06;;;;;;;2.08;1.40;;;17.80;99.90;;;;;;5052834;28;20043;-65
2023/09/30 11:43:33;;;;;;;1.10;1.00;;;17.90;99.90;;;;;;5018463;28;20089;-65
2023/09/30 11:46:08;;;;;;;1.27;0.70;;;17.90;99.30;;;;;;5035222;28;20052;-65
2023/09/30 11:48:38;;;;;;;1.65;1.05;;;18.00;98.60;;;;;;5053027;28;20041;-65
2023/09/30 11:51:04;;;;;;;0.77;0.77;;;18.20;99.40;;;;;;5053099;28;20041;-65
2023/09/30 11:53:35;;;;;;;1.20;0.70;;;18.30;95.10;;;;;;5052942;28;20489;-66
2023/09/30 11:56:02;;;;;;;1.45;0.90;;;18.50;91.60;;;;;;5035899;28;20044;-65
2023/09/30 11:58:33;;;;;;;1.38;0.75;;;18.60;92.10;;;;;;5038935;28;20079;-65
2023/09/30 12:01:01;;;;;;;0.70;0.70;;;18.70;79.00;;;;;;5057157;28;20043;-65
2023/09/30 12:03:27;;;;;;;0.95;0.70;;;18.70;69.90;;;;;;5056679;28;20094;-65
2023/09/30 12:05:55;;;;;;;1.60;0.73;;;18.60;1.00;;;;;;5056941;28;20033;-65
2023/09/30 12:08:22;;;;;;;1.35;0.90;;;18.60;1.00;;;;;;5056879;28;20048;-65
2023/09/30 12:10:47;;;;;;;1.40;0.90;;;18.50;99.90;;;;;;5056850;28;20451;-65
2023/09/30 12:13:15;;;;;;;1.15;0.80;;;18.70;86.80;;;;;;5022126;28;20041;-65
2023/09/30 12:15:42;;;;;;;1.25;0.95;;;19.20;27.90;;;;;;5056850;28;20044;-65
2023/09/30 12:18:07;;;;;;;1.55;0.98;;;19.00;99.90;;;;;;5056702;28;20033;-66
2023/09/30 12:20:33;;;;;;;1.02;0.93;;;19.00;99.90;;;;;;5056717;28;20052;-65
2023/09/30 12:22:59;;;;;;;0.82;0.70;;;19.10;91.70;;;;;;5056569;28;20507;-65
2023/09/30 12:25:25;;;;;;;1.13;1.02;;;19.10;1.00;;;;;;5056630;28;20041;-66
2023/09/30 12:27:51;;;;;;;1.38;1.23;;;19.50;99.90;;;;;;5056562;28;20048;-65
2023/09/30 12:30:20;;;;;;;2.08;0.73;;;19.60;99.90;;;;;;5056492;28;20033;-64
2023/09/30 12:32:45;;;;;;;0.80;0.70;;;19.30;99.90;;;;;;5056192;28;20512;-64
2023/09/30 12:35:11;;;;;;;1.42;0.95;;;19.90;99.90;;;;;;5056390;28;20049;-64
2023/09/30 12:37:38;;;;;;;1.67;0.95;;;19.40;1.00;;;;;;5038343;28;20550;-64
2023/09/30 12:40:11;;;;;;;0.82;0.82;;;19.40;99.90;;;;;;5056033;28;20044;-64
2023/09/30 12:42:37;;;;;;;1.73;0.95;;;19.30;99.90;;;;;;5056128;28;20033;-64
2023/09/30 12:45:05;;;;;;;0.70;0.70;;;19.50;99.90;;;;;;5038031;28;20063;-64
2023/09/30 12:47:31;;;;;;;1.08;1.00;;;19.10;1.00;;;;;;5038091;28;20043;-64
2023/09/30 12:49:57;;;;;;;1.42;0.98;;;19.00;1.00;;;;;;5056254;28;20094;-65
2023/09/30 12:52:24;;;;;;;0.98;0.80;;;19.50;1.70;;;;;;5056049;28;20041;-65